sensor_id;sensor_type;location;lat;lon;timestamp;pressure;altitude;pressure_sealevel;temperature;humidity
10732;BME280;5417;42.686;23.244;2023-02-28T00:01:34;94699.56;;;9.24;80.92
10732;BME280;5417;42.686;23.244;2023-02-28T00:04:01;94731.00;;;9.32;79.97
10732;BME280;5417;42.686;23.244;2023-02-28T00:06:30;94718.63;;;9.35;80.32
10732;BME280;5417;42.686;23.244;2023-02-28T00:08:58;94712.34;;;9.27;80.25
10732;BME280;5417;42.686;23.244;2023-02-28T00:11:26;94732.56;;;9.34;80.09
10732;BME280;5417;42.686;23.244;2023-02-28T00:13:59;94727.25;;;9.36;80.38
10732;BME280;5417;42.686;23.244;2023-02-28T00:16:26;94734.31;;;9.46;80.59
10732;BME280;5417;42.686;23.244;2023-02-28T00:18:53;94725.56;;;9.47;80.33
10732;BME280;5417;42.686;23.244;2023-02-28T00:21:23;94738.75;;;9.57;80.04
10732;BME280;5417;42.686;23.244;2023-02-28T00:23:52;94729.78;;;9.61;79.44
10732;BME280;5417;42.686;23.244;2023-02-28T00:26:19;94736.63;;;9.62;78.85
10732;BME280;5417;42.686;23.244;2023-02-28T00:28:46;94753.06;;;9.63;78.80
10732;BME280;5417;42.686;23.244;2023-02-28T00:31:13;94750.47;;;9.63;78.36
10732;BME280;5417;42.686;23.244;2023-02-28T00:33:41;94745.31;;;9.50;78.96
10732;BME280;5417;42.686;23.244;2023-02-28T00:36:10;94753.09;;;9.50;78.96
10732;BME280;5417;42.686;23.244;2023-02-28T00:38:40;94747.09;;;9.49;78.51
10732;BME280;5417;42.686;23.244;2023-02-28T00:41:09;94744.72;;;9.46;79.22
10732;BME280;5417;42.686;23.244;2023-02-28T00:43:37;94745.44;;;9.48;79.22
10732;BME280;5417;42.686;23.244;2023-02-28T00:46:05;94745.91;;;9.54;79.61
10732;BME280;5417;42.686;23.244;2023-02-28T00:48:33;94736.75;;;9.61;79.52
10732;BME280;5417;42.686;23.244;2023-02-28T00:51:00;94746.91;;;9.64;78.68
10732;BME280;5417;42.686;23.244;2023-02-28T00:53:28;94748.56;;;9.65;78.22
10732;BME280;5417;42.686;23.244;2023-02-28T00:55:58;94749.03;;;9.59;77.76
10732;BME280;5417;42.686;23.244;2023-02-28T00:58:27;94749.28;;;9.43;78.61
10732;BME280;5417;42.686;23.244;2023-02-28T01:00:55;94751.47;;;9.36;78.58
10732;BME280;5417;42.686;23.244;2023-02-28T01:03:22;94742.00;;;9.11;78.89
10732;BME280;5417;42.686;23.244;2023-02-28T01:05:49;94734.03;;;8.76;80.05
10732;BME280;5417;42.686;23.244;2023-02-28T01:08:18;94736.34;;;8.68;81.08
10732;BME280;5417;42.686;23.244;2023-02-28T01:10:45;94740.81;;;8.53;81.51
10732;BME280;5417;42.686;23.244;2023-02-28T01:13:19;94743.03;;;8.20;82.36
10732;BME280;5417;42.686;23.244;2023-02-28T01:15:51;94745.81;;;8.04;83.64
10732;BME280;5417;42.686;23.244;2023-02-28T01:18:20;94745.06;;;7.89;83.91
10732;BME280;5417;42.686;23.244;2023-02-28T01:20:48;94743.59;;;7.85;84.60
10732;BME280;5417;42.686;23.244;2023-02-28T01:23:18;94750.03;;;7.93;85.26
10732;BME280;5417;42.686;23.244;2023-02-28T01:25:46;94750.66;;;7.83;85.13
10732;BME280;5417;42.686;23.244;2023-02-28T01:28:13;94745.66;;;7.80;85.24
10732;BME280;5417;42.686;23.244;2023-02-28T01:30:47;94739.28;;;7.72;85.67
10732;BME280;5417;42.686;23.244;2023-02-28T01:33:16;94742.63;;;7.74;86.01
10732;BME280;5417;42.686;23.244;2023-02-28T01:35:43;94742.59;;;7.61;85.91
10732;BME280;5417;42.686;23.244;2023-02-28T01:38:10;94745.56;;;7.55;86.23
10732;BME280;5417;42.686;23.244;2023-02-28T01:40:37;94751.44;;;7.44;85.95
10732;BME280;5417;42.686;23.244;2023-02-28T01:43:07;94747.47;;;7.39;85.49
10732;BME280;5417;42.686;23.244;2023-02-28T01:45:43;94748.31;;;7.39;85.54
10732;BME280;5417;42.686;23.244;2023-02-28T01:48:10;94754.22;;;7.41;84.93
10732;BME280;5417;42.686;23.244;2023-02-28T01:50:42;94745.72;;;7.39;85.49
10732;BME280;5417;42.686;23.244;2023-02-28T01:53:13;94739.22;;;7.46;84.98
10732;BME280;5417;42.686;23.244;2023-02-28T01:55:47;94754.81;;;7.59;84.73
10732;BME280;5417;42.686;23.244;2023-02-28T01:58:15;94758.63;;;7.53;85.31
10732;BME280;5417;42.686;23.244;2023-02-28T02:00:45;94745.94;;;7.76;84.55
10732;BME280;5417;42.686;23.244;2023-02-28T02:03:13;94753.34;;;7.82;84.59
10732;BME280;5417;42.686;23.244;2023-02-28T02:05:46;94737.19;;;7.91;85.01
10732;BME280;5417;42.686;23.244;2023-02-28T02:08:16;94748.81;;;7.98;84.67
10732;BME280;5417;42.686;23.244;2023-02-28T02:10:46;94723.41;;;7.90;84.35
10732;BME280;5417;42.686;23.244;2023-02-28T02:13:25;94731.59;;;7.97;84.08
10732;BME280;5417;42.686;23.244;2023-02-28T02:16:02;94753.38;;;8.07;84.13
10732;BME280;5417;42.686;23.244;2023-02-28T02:18:38;94737.94;;;8.06;83.28
10732;BME280;5417;42.686;23.244;2023-02-28T02:21:47;94753.09;;;8.12;84.00
10732;BME280;5417;42.686;23.244;2023-02-28T02:27:54;94742.47;;;7.89;83.33
10732;BME280;5417;42.686;23.244;2023-02-28T02:30:59;94737.44;;;7.74;85.60
10732;BME280;5417;42.686;23.244;2023-02-28T02:36:49;94743.50;;;7.60;85.89
10732;BME280;5417;42.686;23.244;2023-02-28T02:39:25;94748.25;;;7.53;86.45
10732;BME280;5417;42.686;23.244;2023-02-28T02:42:00;94739.81;;;7.37;87.41
10732;BME280;5417;42.686;23.244;2023-02-28T02:44:31;94744.25;;;7.35;88.12
10732;BME280;5417;42.686;23.244;2023-02-28T02:47:04;94736.28;;;7.38;88.34
10732;BME280;5417;42.686;23.244;2023-02-28T02:49:35;94755.13;;;7.67;88.57
10732;BME280;5417;42.686;23.244;2023-02-28T02:52:07;94743.06;;;7.53;86.65
10732;BME280;5417;42.686;23.244;2023-02-28T02:54:44;94731.25;;;7.49;86.62
10732;BME280;5417;42.686;23.244;2023-02-28T02:57:17;94723.47;;;7.49;86.80
10732;BME280;5417;42.686;23.244;2023-02-28T02:59:47;94747.84;;;7.59;87.31
10732;BME280;5417;42.686;23.244;2023-02-28T03:02:18;94739.56;;;7.54;87.04
10732;BME280;5417;42.686;23.244;2023-02-28T03:04:51;94759.88;;;7.60;87.02
10732;BME280;5417;42.686;23.244;2023-02-28T03:07:20;94763.09;;;7.64;88.15
10732;BME280;5417;42.686;23.244;2023-02-28T03:09:51;94760.09;;;7.84;87.77
10732;BME280;5417;42.686;23.244;2023-02-28T03:12:33;94761.88;;;7.97;87.44
10732;BME280;5417;42.686;23.244;2023-02-28T03:15:11;94757.63;;;7.96;87.16
10732;BME280;5417;42.686;23.244;2023-02-28T03:17:56;94774.88;;;8.22;85.92
10732;BME280;5417;42.686;23.244;2023-02-28T03:20:38;94778.28;;;8.22;84.61
10732;BME280;5417;42.686;23.244;2023-02-28T03:23:14;94779.44;;;8.18;84.58
10732;BME280;5417;42.686;23.244;2023-02-28T03:25:53;94784.50;;;8.07;84.79
10732;BME280;5417;42.686;23.244;2023-02-28T03:28:29;94781.59;;;8.12;85.57
10732;BME280;5417;42.686;23.244;2023-02-28T03:31:01;94782.03;;;8.18;85.94
10732;BME280;5417;42.686;23.244;2023-02-28T03:33:32;94780.47;;;8.16;85.75
10732;BME280;5417;42.686;23.244;2023-02-28T03:36:08;94789.28;;;8.26;86.10
10732;BME280;5417;42.686;23.244;2023-02-28T03:38:48;94787.09;;;8.20;85.07
10732;BME280;5417;42.686;23.244;2023-02-28T03:41:30;94785.94;;;8.11;84.35
10732;BME280;5417;42.686;23.244;2023-02-28T03:44:03;94799.34;;;8.18;83.90
10732;BME280;5417;42.686;23.244;2023-02-28T03:46:36;94782.44;;;8.12;84.06
10732;BME280;5417;42.686;23.244;2023-02-28T03:49:12;94800.97;;;8.33;83.50
10732;BME280;5417;42.686;23.244;2023-02-28T03:51:50;94814.69;;;8.48;82.72
10732;BME280;5417;42.686;23.244;2023-02-28T03:54:26;94808.34;;;8.39;83.03
10732;BME280;5417;42.686;23.244;2023-02-28T03:57:00;94813.53;;;8.39;83.21
10732;BME280;5417;42.686;23.244;2023-02-28T03:59:33;94795.31;;;8.27;83.15
10732;BME280;5417;42.686;23.244;2023-02-28T04:02:02;94789.59;;;8.21;83.31
10732;BME280;5417;42.686;23.244;2023-02-28T04:04:29;94810.84;;;8.41;83.32
10732;BME280;5417;42.686;23.244;2023-02-28T04:07:01;94791.59;;;8.31;82.77
10732;BME280;5417;42.686;23.244;2023-02-28T04:09:30;94808.16;;;8.55;82.17
10732;BME280;5417;42.686;23.244;2023-02-28T04:11:58;94788.66;;;8.62;81.46
10732;BME280;5417;42.686;23.244;2023-02-28T04:14:25;94793.72;;;8.51;81.74
10732;BME280;5417;42.686;23.244;2023-02-28T04:16:53;94799.75;;;8.39;82.07
10732;BME280;5417;42.686;23.244;2023-02-28T04:19:21;94798.00;;;8.25;83.31
10732;BME280;5417;42.686;23.244;2023-02-28T04:21:50;94796.41;;;8.10;83.52
10732;BME280;5417;42.686;23.244;2023-02-28T04:24:20;94804.09;;;8.11;84.34
10732;BME280;5417;42.686;23.244;2023-02-28T04:26:50;94802.06;;;8.29;83.52
10732;BME280;5417;42.686;23.244;2023-02-28T04:29:20;94789.91;;;8.30;83.42
10732;BME280;5417;42.686;23.244;2023-02-28T04:31:48;94806.78;;;8.37;83.25
10732;BME280;5417;42.686;23.244;2023-02-28T04:34:16;94809.63;;;8.19;83.33
10732;BME280;5417;42.686;23.244;2023-02-28T04:36:44;94811.97;;;8.10;84.69
10732;BME280;5417;42.686;23.244;2023-02-28T04:39:11;94787.34;;;7.90;84.85
10732;BME280;5417;42.686;23.244;2023-02-28T04:41:40;94816.03;;;8.14;84.96
10732;BME280;5417;42.686;23.244;2023-02-28T04:44:10;94818.00;;;8.10;84.92
10732;BME280;5417;42.686;23.244;2023-02-28T04:46:40;94818.72;;;8.12;84.80
10732;BME280;5417;42.686;23.244;2023-02-28T04:49:08;94813.63;;;8.11;84.32
10732;BME280;5417;42.686;23.244;2023-02-28T04:51:35;94833.34;;;8.13;84.66
10732;BME280;5417;42.686;23.244;2023-02-28T04:54:12;94830.22;;;8.08;84.47
10732;BME280;5417;42.686;23.244;2023-02-28T04:56:41;94838.84;;;8.09;84.92
10732;BME280;5417;42.686;23.244;2023-02-28T04:59:11;94823.63;;;7.90;84.70
10732;BME280;5417;42.686;23.244;2023-02-28T05:01:38;94846.03;;;7.91;85.09
10732;BME280;5417;42.686;23.244;2023-02-28T05:04:05;94829.94;;;7.86;85.40
10732;BME280;5417;42.686;23.244;2023-02-28T05:06:33;94817.81;;;7.86;86.08
10732;BME280;5417;42.686;23.244;2023-02-28T05:09:00;94814.59;;;7.83;85.00
10732;BME280;5417;42.686;23.244;2023-02-28T05:11:29;94822.91;;;7.88;85.74
10732;BME280;5417;42.686;23.244;2023-02-28T05:14:00;94840.25;;;8.00;86.22
10732;BME280;5417;42.686;23.244;2023-02-28T05:16:48;94830.50;;;7.91;85.57
10732;BME280;5417;42.686;23.244;2023-02-28T05:19:15;94837.47;;;8.03;85.21
10732;BME280;5417;42.686;23.244;2023-02-28T05:21:58;94829.66;;;7.90;85.71
10732;BME280;5417;42.686;23.244;2023-02-28T05:24:31;94843.63;;;8.15;84.67
10732;BME280;5417;42.686;23.244;2023-02-28T05:27:02;94820.78;;;8.07;84.37
10732;BME280;5417;42.686;23.244;2023-02-28T05:29:29;94848.72;;;8.29;83.92
10732;BME280;5417;42.686;23.244;2023-02-28T05:31:57;94831.09;;;8.21;83.47
10732;BME280;5417;42.686;23.244;2023-02-28T05:34:26;94851.91;;;8.34;83.16
10732;BME280;5417;42.686;23.244;2023-02-28T05:36:53;94854.22;;;8.39;82.66
10732;BME280;5417;42.686;23.244;2023-02-28T05:39:20;94863.13;;;8.35;82.43
10732;BME280;5417;42.686;23.244;2023-02-28T05:41:49;94863.22;;;8.33;83.77
10732;BME280;5417;42.686;23.244;2023-02-28T05:44:16;94843.44;;;8.31;82.44
10732;BME280;5417;42.686;23.244;2023-02-28T05:46:43;94866.34;;;8.38;82.59
10732;BME280;5417;42.686;23.244;2023-02-28T05:49:12;94848.81;;;8.15;83.56
10732;BME280;5417;42.686;23.244;2023-02-28T05:51:41;94844.31;;;8.04;83.67
10732;BME280;5417;42.686;23.244;2023-02-28T05:54:08;94869.44;;;8.16;84.33
10732;BME280;5417;42.686;23.244;2023-02-28T05:56:35;94841.38;;;7.96;84.46
10732;BME280;5417;42.686;23.244;2023-02-28T05:59:04;94873.31;;;8.23;85.74
10732;BME280;5417;42.686;23.244;2023-02-28T06:01:34;94867.47;;;8.34;84.93
10732;BME280;5417;42.686;23.244;2023-02-28T06:04:06;94854.50;;;8.34;84.58
10732;BME280;5417;42.686;23.244;2023-02-28T06:06:35;94869.56;;;8.42;83.55
10732;BME280;5417;42.686;23.244;2023-02-28T06:09:03;94877.25;;;8.43;83.26
10732;BME280;5417;42.686;23.244;2023-02-28T06:11:30;94874.75;;;8.42;83.17
10732;BME280;5417;42.686;23.244;2023-02-28T06:13:58;94862.00;;;8.24;83.91
10732;BME280;5417;42.686;23.244;2023-02-28T06:16:27;94858.88;;;8.19;83.70
10732;BME280;5417;42.686;23.244;2023-02-28T06:18:54;94860.63;;;8.33;84.00
10732;BME280;5417;42.686;23.244;2023-02-28T06:21:22;94875.31;;;8.60;83.51
10732;BME280;5417;42.686;23.244;2023-02-28T06:23:51;94875.28;;;8.47;82.76
10732;BME280;5417;42.686;23.244;2023-02-28T06:26:19;94857.84;;;8.22;83.13
10732;BME280;5417;42.686;23.244;2023-02-28T06:28:46;94871.00;;;8.19;84.56
10732;BME280;5417;42.686;23.244;2023-02-28T06:31:15;94869.44;;;8.16;85.54
10732;BME280;5417;42.686;23.244;2023-02-28T06:33:44;94886.81;;;8.29;85.70
10732;BME280;5417;42.686;23.244;2023-02-28T06:36:13;94894.16;;;8.22;84.81
10732;BME280;5417;42.686;23.244;2023-02-28T06:38:40;94891.13;;;8.15;85.83
10732;BME280;5417;42.686;23.244;2023-02-28T06:41:09;94892.88;;;8.15;85.62
10732;BME280;5417;42.686;23.244;2023-02-28T06:43:38;94901.88;;;8.09;86.94
10732;BME280;5417;42.686;23.244;2023-02-28T06:46:07;94897.09;;;8.03;86.78
10732;BME280;5417;42.686;23.244;2023-02-28T06:48:35;94895.03;;;8.08;86.89
10732;BME280;5417;42.686;23.244;2023-02-28T06:51:03;94895.56;;;8.13;85.60
10732;BME280;5417;42.686;23.244;2023-02-28T06:53:31;94893.91;;;8.12;85.44
10732;BME280;5417;42.686;23.244;2023-02-28T06:55:58;94907.31;;;8.19;85.79
10732;BME280;5417;42.686;23.244;2023-02-28T06:58:26;94899.63;;;8.17;85.79
10732;BME280;5417;42.686;23.244;2023-02-28T07:00:53;94900.50;;;8.31;86.36
10732;BME280;5417;42.686;23.244;2023-02-28T07:03:20;94897.91;;;8.31;86.18
10732;BME280;5417;42.686;23.244;2023-02-28T07:05:47;94898.53;;;8.48;85.88
10732;BME280;5417;42.686;23.244;2023-02-28T07:08:14;94895.75;;;8.51;84.05
10732;BME280;5417;42.686;23.244;2023-02-28T07:10:44;94900.63;;;8.56;84.99
10732;BME280;5417;42.686;23.244;2023-02-28T07:13:12;94901.75;;;8.52;84.60
10732;BME280;5417;42.686;23.244;2023-02-28T07:15:41;94906.31;;;8.48;84.95
10732;BME280;5417;42.686;23.244;2023-02-28T07:18:08;94905.97;;;8.40;84.43
10732;BME280;5417;42.686;23.244;2023-02-28T07:20:35;94902.75;;;8.22;85.38
10732;BME280;5417;42.686;23.244;2023-02-28T07:23:02;94909.81;;;8.20;85.81
10732;BME280;5417;42.686;23.244;2023-02-28T07:25:29;94904.28;;;8.12;86.56
10732;BME280;5417;42.686;23.244;2023-02-28T07:27:56;94899.28;;;8.09;87.08
10732;BME280;5417;42.686;23.244;2023-02-28T07:30:24;94901.19;;;8.20;86.89
10732;BME280;5417;42.686;23.244;2023-02-28T07:33:03;94903.00;;;8.32;86.15
10732;BME280;5417;42.686;23.244;2023-02-28T07:35:30;94903.59;;;8.37;85.97
10732;BME280;5417;42.686;23.244;2023-02-28T07:37:57;94908.16;;;8.34;85.24
10732;BME280;5417;42.686;23.244;2023-02-28T07:40:26;94908.47;;;8.28;85.26
10732;BME280;5417;42.686;23.244;2023-02-28T07:42:53;94907.50;;;8.16;85.99
10732;BME280;5417;42.686;23.244;2023-02-28T07:45:21;94909.16;;;8.17;86.12
10732;BME280;5417;42.686;23.244;2023-02-28T07:47:48;94907.84;;;8.24;86.28
10732;BME280;5417;42.686;23.244;2023-02-28T07:50:20;94905.34;;;8.22;87.27
10732;BME280;5417;42.686;23.244;2023-02-28T07:52:49;94897.38;;;8.26;86.08
10732;BME280;5417;42.686;23.244;2023-02-28T07:55:18;94900.38;;;8.34;85.86
10732;BME280;5417;42.686;23.244;2023-02-28T07:57:46;94903.78;;;8.34;86.41
10732;BME280;5417;42.686;23.244;2023-02-28T08:00:15;94901.44;;;8.30;85.74
10732;BME280;5417;42.686;23.244;2023-02-28T08:02:44;94905.97;;;8.26;86.68
10732;BME280;5417;42.686;23.244;2023-02-28T08:05:12;94902.03;;;8.35;86.29
10732;BME280;5417;42.686;23.244;2023-02-28T08:07:42;94899.22;;;8.23;86.90
10732;BME280;5417;42.686;23.244;2023-02-28T08:10:12;94901.59;;;8.14;87.00
10732;BME280;5417;42.686;23.244;2023-02-28T08:12:40;94882.81;;;8.10;87.95
10732;BME280;5417;42.686;23.244;2023-02-28T08:15:09;94908.78;;;8.23;88.99
10732;BME280;5417;42.686;23.244;2023-02-28T08:17:40;94908.56;;;8.26;88.09
10732;BME280;5417;42.686;23.244;2023-02-28T08:20:14;94901.28;;;8.18;88.47
10732;BME280;5417;42.686;23.244;2023-02-28T08:22:47;94897.13;;;8.16;88.45
10732;BME280;5417;42.686;23.244;2023-02-28T08:25:16;94915.09;;;8.19;88.32
10732;BME280;5417;42.686;23.244;2023-02-28T08:27:50;94912.41;;;8.20;88.84
10732;BME280;5417;42.686;23.244;2023-02-28T08:30:25;94905.16;;;8.26;88.26
10732;BME280;5417;42.686;23.244;2023-02-28T08:32:54;94906.81;;;8.27;87.63
10732;BME280;5417;42.686;23.244;2023-02-28T08:35:23;94916.25;;;8.28;88.49
10732;BME280;5417;42.686;23.244;2023-02-28T08:37:53;94916.75;;;8.34;88.89
10732;BME280;5417;42.686;23.244;2023-02-28T08:40:22;94899.78;;;8.29;88.66
10732;BME280;5417;42.686;23.244;2023-02-28T08:42:53;94910.69;;;8.48;88.39
10732;BME280;5417;42.686;23.244;2023-02-28T08:45:26;94914.44;;;8.57;87.98
10732;BME280;5417;42.686;23.244;2023-02-28T08:47:56;94912.88;;;8.54;87.42
10732;BME280;5417;42.686;23.244;2023-02-28T08:50:25;94911.69;;;8.45;87.62
10732;BME280;5417;42.686;23.244;2023-02-28T08:55:32;94915.97;;;8.46;88.38
10732;BME280;5417;42.686;23.244;2023-02-28T08:58:01;94917.38;;;8.38;88.41
10732;BME280;5417;42.686;23.244;2023-02-28T09:00:30;94923.13;;;8.43;88.71
10732;BME280;5417;42.686;23.244;2023-02-28T09:02:59;94916.16;;;8.43;88.85
10732;BME280;5417;42.686;23.244;2023-02-28T09:05:28;94913.47;;;8.45;88.61
10732;BME280;5417;42.686;23.244;2023-02-28T09:08:00;94918.56;;;8.46;88.56
10732;BME280;5417;42.686;23.244;2023-02-28T09:10:31;94913.91;;;8.51;88.02
10732;BME280;5417;42.686;23.244;2023-02-28T09:13:02;94910.16;;;8.56;88.37
10732;BME280;5417;42.686;23.244;2023-02-28T09:15:31;94911.31;;;8.64;87.32
10732;BME280;5417;42.686;23.244;2023-02-28T09:17:59;94902.59;;;8.65;86.86
10732;BME280;5417;42.686;23.244;2023-02-28T09:20:26;94909.47;;;8.66;86.56
10732;BME280;5417;42.686;23.244;2023-02-28T09:22:53;94914.97;;;8.74;86.69
10732;BME280;5417;42.686;23.244;2023-02-28T09:25:22;94892.25;;;8.78;86.98
10732;BME280;5417;42.686;23.244;2023-02-28T09:27:49;94910.22;;;8.81;86.73
10732;BME280;5417;42.686;23.244;2023-02-28T09:30:16;94911.13;;;8.80;86.58
10732;BME280;5417;42.686;23.244;2023-02-28T09:32:44;94896.72;;;8.76;86.77
10732;BME280;5417;42.686;23.244;2023-02-28T09:35:21;94907.22;;;8.87;87.26
10732;BME280;5417;42.686;23.244;2023-02-28T09:37:48;94888.91;;;8.76;87.53
10732;BME280;5417;42.686;23.244;2023-02-28T09:40:18;94890.69;;;8.75;87.53
10732;BME280;5417;42.686;23.244;2023-02-28T09:42:48;94901.56;;;8.68;87.60
10732;BME280;5417;42.686;23.244;2023-02-28T09:45:22;94884.72;;;8.48;89.22
10732;BME280;5417;42.686;23.244;2023-02-28T09:47:53;94891.81;;;8.59;88.93
10732;BME280;5417;42.686;23.244;2023-02-28T09:50:34;94899.94;;;8.79;88.75
10732;BME280;5417;42.686;23.244;2023-02-28T09:53:11;94902.16;;;8.98;89.09
10732;BME280;5417;42.686;23.244;2023-02-28T09:55:43;94889.06;;;9.00;88.16
10732;BME280;5417;42.686;23.244;2023-02-28T09:58:20;94893.84;;;9.06;88.14
10732;BME280;5417;42.686;23.244;2023-02-28T10:00:54;94889.47;;;9.19;88.96
10732;BME280;5417;42.686;23.244;2023-02-28T10:03:30;94879.28;;;9.29;87.87
10732;BME280;5417;42.686;23.244;2023-02-28T10:06:03;94888.75;;;9.42;87.75
10732;BME280;5417;42.686;23.244;2023-02-28T10:08:35;94885.72;;;9.48;87.07
10732;BME280;5417;42.686;23.244;2023-02-28T10:11:08;94886.75;;;9.59;86.78
10732;BME280;5417;42.686;23.244;2023-02-28T10:13:46;94867.41;;;9.63;86.41
10732;BME280;5417;42.686;23.244;2023-02-28T10:16:20;94874.84;;;9.80;85.50
10732;BME280;5417;42.686;23.244;2023-02-28T10:18:52;94873.78;;;9.82;85.15
10732;BME280;5417;42.686;23.244;2023-02-28T10:21:24;94863.47;;;9.94;85.63
10732;BME280;5417;42.686;23.244;2023-02-28T10:23:59;94863.47;;;10.18;85.28
10732;BME280;5417;42.686;23.244;2023-02-28T10:26:31;94846.75;;;10.22;84.56
10732;BME280;5417;42.686;23.244;2023-02-28T10:29:00;94856.53;;;10.42;83.95
10732;BME280;5417;42.686;23.244;2023-02-28T10:31:28;94857.16;;;10.46;82.72
10732;BME280;5417;42.686;23.244;2023-02-28T10:33:55;94847.91;;;10.41;83.55
10732;BME280;5417;42.686;23.244;2023-02-28T10:36:24;94844.41;;;10.54;83.20
10732;BME280;5417;42.686;23.244;2023-02-28T10:38:53;94841.44;;;10.58;82.87
10732;BME280;5417;42.686;23.244;2023-02-28T10:41:29;94833.06;;;10.66;82.91
10732;BME280;5417;42.686;23.244;2023-02-28T10:44:20;94828.00;;;10.87;82.45
10732;BME280;5417;42.686;23.244;2023-02-28T10:46:48;94831.13;;;11.03;81.96
10732;BME280;5417;42.686;23.244;2023-02-28T10:49:20;94817.75;;;11.19;80.58
10732;BME280;5417;42.686;23.244;2023-02-28T10:51:50;94811.13;;;11.37;79.87
10732;BME280;5417;42.686;23.244;2023-02-28T10:54:20;94803.91;;;11.52;78.28
10732;BME280;5417;42.686;23.244;2023-02-28T10:57:08;94806.25;;;11.66;77.63
10732;BME280;5417;42.686;23.244;2023-02-28T10:59:37;94785.13;;;11.69;77.57
10732;BME280;5417;42.686;23.244;2023-02-28T11:02:29;94794.47;;;11.94;75.96
10732;BME280;5417;42.686;23.244;2023-02-28T11:04:59;94797.63;;;12.09;75.46
10732;BME280;5417;42.686;23.244;2023-02-28T11:07:29;94776.75;;;12.09;73.53
10732;BME280;5417;42.686;23.244;2023-02-28T11:09:57;94781.28;;;12.07;72.51
10732;BME280;5417;42.686;23.244;2023-02-28T11:12:29;94783.63;;;12.10;72.33
10732;BME280;5417;42.686;23.244;2023-02-28T11:15:02;94793.63;;;12.05;71.75
10732;BME280;5417;42.686;23.244;2023-02-28T11:17:32;94786.28;;;11.98;71.63
10732;BME280;5417;42.686;23.244;2023-02-28T11:20:02;94777.13;;;12.04;72.28
10732;BME280;5417;42.686;23.244;2023-02-28T11:22:35;94753.53;;;12.06;71.71
10732;BME280;5417;42.686;23.244;2023-02-28T11:25:08;94768.81;;;12.10;71.20
10732;BME280;5417;42.686;23.244;2023-02-28T11:27:47;94771.53;;;12.09;71.65
10732;BME280;5417;42.686;23.244;2023-02-28T11:30:32;94768.50;;;12.04;71.92
10732;BME280;5417;42.686;23.244;2023-02-28T11:33:01;94777.91;;;12.16;71.52
10732;BME280;5417;42.686;23.244;2023-02-28T11:35:31;94764.75;;;12.17;70.90
10732;BME280;5417;42.686;23.244;2023-02-28T11:38:00;94755.91;;;12.29;70.98
10732;BME280;5417;42.686;23.244;2023-02-28T11:40:36;94751.38;;;12.31;70.09
10732;BME280;5417;42.686;23.244;2023-02-28T11:43:18;94759.91;;;12.33;70.41
10732;BME280;5417;42.686;23.244;2023-02-28T11:46:04;94773.38;;;12.50;69.78
10732;BME280;5417;42.686;23.244;2023-02-28T11:48:39;94766.47;;;12.28;70.41
10732;BME280;5417;42.686;23.244;2023-02-28T11:51:15;94777.28;;;12.23;70.44
10732;BME280;5417;42.686;23.244;2023-02-28T11:54:04;94764.63;;;12.19;70.42
10732;BME280;5417;42.686;23.244;2023-02-28T11:56:37;94772.94;;;12.13;70.88
10732;BME280;5417;42.686;23.244;2023-02-28T11:59:38;94758.50;;;12.09;71.49
10732;BME280;5417;42.686;23.244;2023-02-28T12:02:29;94763.09;;;12.16;71.02
10732;BME280;5417;42.686;23.244;2023-02-28T12:05:13;94749.47;;;12.13;70.66
10732;BME280;5417;42.686;23.244;2023-02-28T12:07:52;94769.84;;;12.19;70.57
10732;BME280;5417;42.686;23.244;2023-02-28T12:10:25;94760.88;;;12.32;70.76
10732;BME280;5417;42.686;23.244;2023-02-28T12:13:07;94751.25;;;12.33;70.11
10732;BME280;5417;42.686;23.244;2023-02-28T12:15:58;94761.38;;;12.26;70.34
10732;BME280;5417;42.686;23.244;2023-02-28T12:18:53;94750.94;;;12.26;70.33
10732;BME280;5417;42.686;23.244;2023-02-28T12:21:33;94755.75;;;12.10;70.42
10732;BME280;5417;42.686;23.244;2023-02-28T12:24:34;94773.13;;;12.00;70.44
10732;BME280;5417;42.686;23.244;2023-02-28T12:27:09;94755.00;;;11.87;71.07
10732;BME280;5417;42.686;23.244;2023-02-28T12:29:44;94766.84;;;11.91;71.16
10732;BME280;5417;42.686;23.244;2023-02-28T12:32:18;94749.16;;;12.06;70.86
10732;BME280;5417;42.686;23.244;2023-02-28T12:34:52;94746.78;;;12.03;70.17
10732;BME280;5417;42.686;23.244;2023-02-28T12:37:26;94740.75;;;12.23;70.46
10732;BME280;5417;42.686;23.244;2023-02-28T12:40:02;94747.69;;;12.13;70.34
10732;BME280;5417;42.686;23.244;2023-02-28T12:42:40;94750.38;;;12.23;69.72
10732;BME280;5417;42.686;23.244;2023-02-28T12:45:11;94754.75;;;12.02;69.62
10732;BME280;5417;42.686;23.244;2023-02-28T12:47:42;94758.66;;;11.96;69.36
10732;BME280;5417;42.686;23.244;2023-02-28T12:50:13;94744.81;;;11.84;69.38
10732;BME280;5417;42.686;23.244;2023-02-28T12:52:49;94753.00;;;11.80;69.79
10732;BME280;5417;42.686;23.244;2023-02-28T12:55:23;94747.94;;;11.78;70.46
10732;BME280;5417;42.686;23.244;2023-02-28T12:58:05;94747.63;;;11.92;70.12
10732;BME280;5417;42.686;23.244;2023-02-28T13:00:38;94742.66;;;11.89;69.86
10732;BME280;5417;42.686;23.244;2023-02-28T13:03:35;94737.19;;;11.92;69.46
10732;BME280;5417;42.686;23.244;2023-02-28T13:06:22;94715.56;;;11.81;69.60
10732;BME280;5417;42.686;23.244;2023-02-28T13:09:06;94743.94;;;11.95;69.13
10732;BME280;5417;42.686;23.244;2023-02-28T13:11:44;94717.78;;;11.85;68.41
10732;BME280;5417;42.686;23.244;2023-02-28T13:14:29;94730.69;;;11.87;68.89
10732;BME280;5417;42.686;23.244;2023-02-28T13:17:03;94730.81;;;11.85;69.06
10732;BME280;5417;42.686;23.244;2023-02-28T13:19:40;94735.59;;;11.80;68.99
10732;BME280;5417;42.686;23.244;2023-02-28T13:22:18;94720.53;;;11.73;68.88
10732;BME280;5417;42.686;23.244;2023-02-28T13:24:50;94740.09;;;11.78;68.35
10732;BME280;5417;42.686;23.244;2023-02-28T13:27:35;94728.38;;;11.61;68.43
10732;BME280;5417;42.686;23.244;2023-02-28T13:33:27;94732.34;;;11.88;69.57
10732;BME280;5417;42.686;23.244;2023-02-28T13:36:08;94716.84;;;11.86;69.40
10732;BME280;5417;42.686;23.244;2023-02-28T13:38:43;94719.31;;;11.88;69.51
10732;BME280;5417;42.686;23.244;2023-02-28T13:41:47;94719.63;;;12.06;69.01
10732;BME280;5417;42.686;23.244;2023-02-28T13:44:23;94718.41;;;12.10;68.29
10732;BME280;5417;42.686;23.244;2023-02-28T13:47:27;94721.41;;;12.05;67.89